sensor_id;sensor_type;location;lat;lon;timestamp;P1;durP1;ratioP1;P2;durP2;ratioP2
62997;SDS011;55949;52.590;7.330;2023-04-15T00:00:51;7.28;;;4.53;;
62997;SDS011;55949;52.590;7.330;2023-04-15T00:01:52;11.02;;;5.07;;
62997;SDS011;55949;52.590;7.330;2023-04-15T00:02:54;7.93;;;4.68;;
62997;SDS011;55949;52.590;7.330;2023-04-15T00:03:54;8.85;;;4.72;;
62997;SDS011;55949;52.590;7.330;2023-04-15T00:04:55;9.65;;;5.07;;
62997;SDS011;55949;52.590;7.330;2023-04-15T00:05:56;10.13;;;5.25;;
62997;SDS011;55949;52.590;7.330;2023-04-15T00:06:57;8.55;;;5.18;;
62997;SDS011;55949;52.590;7.330;2023-04-15T00:07:58;10.07;;;5.13;;
62997;SDS011;55949;52.590;7.330;2023-04-15T00:09:00;12.38;;;5.20;;
62997;SDS011;55949;52.590;7.330;2023-04-15T00:10:01;8.57;;;5.68;;
62997;SDS011;55949;52.590;7.330;2023-04-15T00:11:03;8.55;;;5.07;;
62997;SDS011;55949;52.590;7.330;2023-04-15T00:12:04;6.97;;;4.95;;
62997;SDS011;55949;52.590;7.330;2023-04-15T00:13:05;8.48;;;5.43;;
62997;SDS011;55949;52.590;7.330;2023-04-15T00:14:06;9.00;;;5.15;;
62997;SDS011;55949;52.590;7.330;2023-04-15T00:15:07;7.40;;;4.85;;
62997;SDS011;55949;52.590;7.330;2023-04-15T00:16:08;9.45;;;5.38;;
62997;SDS011;55949;52.590;7.330;2023-04-15T00:17:10;9.77;;;5.28;;
62997;SDS011;55949;52.590;7.330;2023-04-15T00:18:11;7.78;;;5.40;;
62997;SDS011;55949;52.590;7.330;2023-04-15T00:19:12;8.45;;;4.75;;
62997;SDS011;55949;52.590;7.330;2023-04-15T00:20:12;8.75;;;5.45;;
62997;SDS011;55949;52.590;7.330;2023-04-15T00:21:13;9.90;;;5.60;;
62997;SDS011;55949;52.590;7.330;2023-04-15T00:22:14;10.18;;;5.00;;
62997;SDS011;55949;52.590;7.330;2023-04-15T00:23:15;7.78;;;5.07;;
62997;SDS011;55949;52.590;7.330;2023-04-15T00:24:15;8.85;;;5.10;;
62997;SDS011;55949;52.590;7.330;2023-04-15T00:25:16;8.90;;;5.38;;
62997;SDS011;55949;52.590;7.330;2023-04-15T00:26:17;8.60;;;4.90;;
62997;SDS011;55949;52.590;7.330;2023-04-15T00:27:18;9.52;;;5.20;;
62997;SDS011;55949;52.590;7.330;2023-04-15T00:28:19;10.15;;;5.40;;
62997;SDS011;55949;52.590;7.330;2023-04-15T00:29:20;9.52;;;6.00;;
62997;SDS011;55949;52.590;7.330;2023-04-15T00:30:21;10.55;;;5.65;;
62997;SDS011;55949;52.590;7.330;2023-04-15T00:31:22;10.32;;;5.60;;
62997;SDS011;55949;52.590;7.330;2023-04-15T00:32:23;10.82;;;5.43;;
62997;SDS011;55949;52.590;7.330;2023-04-15T00:33:24;7.53;;;5.25;;
62997;SDS011;55949;52.590;7.330;2023-04-15T00:34:25;9.23;;;5.63;;
62997;SDS011;55949;52.590;7.330;2023-04-15T00:35:26;10.18;;;5.75;;
62997;SDS011;55949;52.590;7.330;2023-04-15T00:36:27;9.57;;;5.28;;
62997;SDS011;55949;52.590;7.330;2023-04-15T00:37:28;8.75;;;5.82;;
62997;SDS011;55949;52.590;7.330;2023-04-15T00:38:29;8.32;;;5.85;;
62997;SDS011;55949;52.590;7.330;2023-04-15T00:39:30;11.00;;;6.10;;
62997;SDS011;55949;52.590;7.330;2023-04-15T00:40:31;8.32;;;5.55;;
62997;SDS011;55949;52.590;7.330;2023-04-15T00:41:33;10.48;;;5.53;;
62997;SDS011;55949;52.590;7.330;2023-04-15T00:42:34;14.55;;;5.97;;
62997;SDS011;55949;52.590;7.330;2023-04-15T00:43:36;8.07;;;5.25;;
62997;SDS011;55949;52.590;7.330;2023-04-15T00:44:37;9.93;;;5.68;;
62997;SDS011;55949;52.590;7.330;2023-04-15T00:45:37;15.70;;;6.38;;
62997;SDS011;55949;52.590;7.330;2023-04-15T00:46:38;9.75;;;6.20;;
62997;SDS011;55949;52.590;7.330;2023-04-15T00:47:40;8.57;;;5.57;;
62997;SDS011;55949;52.590;7.330;2023-04-15T00:48:42;9.32;;;5.55;;
62997;SDS011;55949;52.590;7.330;2023-04-15T00:49:43;9.68;;;6.50;;
62997;SDS011;55949;52.590;7.330;2023-04-15T00:50:44;11.02;;;5.35;;
62997;SDS011;55949;52.590;7.330;2023-04-15T00:51:45;9.05;;;5.68;;
62997;SDS011;55949;52.590;7.330;2023-04-15T00:52:45;9.05;;;5.72;;
62997;SDS011;55949;52.590;7.330;2023-04-15T00:53:46;8.82;;;5.30;;
62997;SDS011;55949;52.590;7.330;2023-04-15T00:54:47;8.88;;;5.45;;
62997;SDS011;55949;52.590;7.330;2023-04-15T00:55:48;9.18;;;5.78;;
62997;SDS011;55949;52.590;7.330;2023-04-15T00:56:49;12.27;;;6.93;;
62997;SDS011;55949;52.590;7.330;2023-04-15T00:57:50;10.18;;;6.38;;
62997;SDS011;55949;52.590;7.330;2023-04-15T00:58:51;9.40;;;6.72;;
62997;SDS011;55949;52.590;7.330;2023-04-15T00:59:52;13.35;;;6.80;;
62997;SDS011;55949;52.590;7.330;2023-04-15T01:00:55;9.13;;;6.55;;
62997;SDS011;55949;52.590;7.330;2023-04-15T01:01:57;8.48;;;6.28;;
62997;SDS011;55949;52.590;7.330;2023-04-15T01:02:57;10.80;;;6.38;;
62997;SDS011;55949;52.590;7.330;2023-04-15T01:03:58;11.73;;;7.22;;
62997;SDS011;55949;52.590;7.330;2023-04-15T01:04:59;13.38;;;7.32;;
62997;SDS011;55949;52.590;7.330;2023-04-15T01:05:59;11.10;;;6.93;;
62997;SDS011;55949;52.590;7.330;2023-04-15T01:07:01;10.23;;;7.25;;
62997;SDS011;55949;52.590;7.330;2023-04-15T01:08:02;11.00;;;7.18;;
62997;SDS011;55949;52.590;7.330;2023-04-15T01:09:03;14.60;;;7.68;;
62997;SDS011;55949;52.590;7.330;2023-04-15T01:10:04;11.35;;;7.65;;
62997;SDS011;55949;52.590;7.330;2023-04-15T01:11:06;11.30;;;7.15;;
62997;SDS011;55949;52.590;7.330;2023-04-15T01:12:08;11.75;;;7.80;;
62997;SDS011;55949;52.590;7.330;2023-04-15T01:13:13;11.23;;;6.75;;
62997;SDS011;55949;52.590;7.330;2023-04-15T01:14:13;9.65;;;7.00;;
62997;SDS011;55949;52.590;7.330;2023-04-15T01:15:15;11.45;;;7.38;;
62997;SDS011;55949;52.590;7.330;2023-04-15T01:16:16;12.15;;;7.63;;
62997;SDS011;55949;52.590;7.330;2023-04-15T01:17:18;11.82;;;7.65;;
62997;SDS011;55949;52.590;7.330;2023-04-15T01:18:19;11.20;;;7.57;;
62997;SDS011;55949;52.590;7.330;2023-04-15T01:19:20;12.95;;;7.20;;
62997;SDS011;55949;52.590;7.330;2023-04-15T01:20:21;13.25;;;7.78;;
62997;SDS011;55949;52.590;7.330;2023-04-15T01:21:22;12.45;;;7.97;;
62997;SDS011;55949;52.590;7.330;2023-04-15T01:22:23;10.82;;;7.68;;
62997;SDS011;55949;52.590;7.330;2023-04-15T01:23:25;13.73;;;8.40;;
62997;SDS011;55949;52.590;7.330;2023-04-15T01:24:26;13.88;;;7.57;;
62997;SDS011;55949;52.590;7.330;2023-04-15T01:25:31;12.48;;;8.00;;
62997;SDS011;55949;52.590;7.330;2023-04-15T01:26:32;11.32;;;7.35;;
62997;SDS011;55949;52.590;7.330;2023-04-15T01:27:33;12.70;;;7.90;;
62997;SDS011;55949;52.590;7.330;2023-04-15T01:28:35;14.38;;;7.88;;
62997;SDS011;55949;52.590;7.330;2023-04-15T01:29:37;14.68;;;8.75;;
62997;SDS011;55949;52.590;7.330;2023-04-15T01:30:38;14.10;;;8.10;;
62997;SDS011;55949;52.590;7.330;2023-04-15T01:31:39;14.00;;;8.18;;
62997;SDS011;55949;52.590;7.330;2023-04-15T01:32:40;12.93;;;8.45;;
62997;SDS011;55949;52.590;7.330;2023-04-15T01:33:41;16.65;;;8.57;;
62997;SDS011;55949;52.590;7.330;2023-04-15T01:34:42;12.68;;;7.97;;
62997;SDS011;55949;52.590;7.330;2023-04-15T01:35:43;10.48;;;7.60;;
62997;SDS011;55949;52.590;7.330;2023-04-15T01:36:44;13.45;;;7.65;;
62997;SDS011;55949;52.590;7.330;2023-04-15T01:37:45;15.05;;;7.95;;
62997;SDS011;55949;52.590;7.330;2023-04-15T01:38:46;13.75;;;8.30;;
62997;SDS011;55949;52.590;7.330;2023-04-15T01:39:47;11.32;;;7.43;;
62997;SDS011;55949;52.590;7.330;2023-04-15T01:40:48;10.98;;;7.88;;
62997;SDS011;55949;52.590;7.330;2023-04-15T01:41:48;13.52;;;8.18;;
62997;SDS011;55949;52.590;7.330;2023-04-15T01:42:49;12.05;;;8.07;;
62997;SDS011;55949;52.590;7.330;2023-04-15T01:43:50;12.40;;;7.80;;
62997;SDS011;55949;52.590;7.330;2023-04-15T01:44:51;16.60;;;9.35;;
62997;SDS011;55949;52.590;7.330;2023-04-15T01:45:52;12.63;;;8.65;;
62997;SDS011;55949;52.590;7.330;2023-04-15T01:46:53;11.90;;;8.63;;
62997;SDS011;55949;52.590;7.330;2023-04-15T01:47:54;11.73;;;8.18;;
62997;SDS011;55949;52.590;7.330;2023-04-15T01:48:55;11.77;;;8.20;;
62997;SDS011;55949;52.590;7.330;2023-04-15T01:49:56;11.63;;;7.72;;
62997;SDS011;55949;52.590;7.330;2023-04-15T01:50:56;14.63;;;8.98;;
62997;SDS011;55949;52.590;7.330;2023-04-15T01:51:57;12.23;;;8.60;;
62997;SDS011;55949;52.590;7.330;2023-04-15T01:52:58;14.07;;;7.95;;
62997;SDS011;55949;52.590;7.330;2023-04-15T01:53:58;12.60;;;8.18;;
62997;SDS011;55949;52.590;7.330;2023-04-15T01:54:59;14.80;;;8.18;;
62997;SDS011;55949;52.590;7.330;2023-04-15T01:56:00;11.52;;;7.55;;
62997;SDS011;55949;52.590;7.330;2023-04-15T01:57:01;12.48;;;6.47;;
62997;SDS011;55949;52.590;7.330;2023-04-15T01:58:02;9.43;;;6.25;;
62997;SDS011;55949;52.590;7.330;2023-04-15T01:59:06;11.30;;;6.90;;
62997;SDS011;55949;52.590;7.330;2023-04-15T02:00:07;11.50;;;6.30;;
62997;SDS011;55949;52.590;7.330;2023-04-15T02:01:08;11.40;;;6.70;;
62997;SDS011;55949;52.590;7.330;2023-04-15T02:02:10;11.02;;;6.47;;
62997;SDS011;55949;52.590;7.330;2023-04-15T02:03:11;11.75;;;6.35;;
62997;SDS011;55949;52.590;7.330;2023-04-15T02:04:12;10.23;;;6.10;;
62997;SDS011;55949;52.590;7.330;2023-04-15T02:05:15;12.50;;;6.18;;
62997;SDS011;55949;52.590;7.330;2023-04-15T02:06:16;10.77;;;6.10;;
62997;SDS011;55949;52.590;7.330;2023-04-15T02:07:17;9.77;;;5.97;;
62997;SDS011;55949;52.590;7.330;2023-04-15T02:08:18;11.38;;;6.57;;
62997;SDS011;55949;52.590;7.330;2023-04-15T02:09:19;13.20;;;7.63;;
62997;SDS011;55949;52.590;7.330;2023-04-15T02:10:19;13.40;;;8.05;;
62997;SDS011;55949;52.590;7.330;2023-04-15T02:11:20;12.77;;;7.93;;
62997;SDS011;55949;52.590;7.330;2023-04-15T02:12:22;11.93;;;8.35;;
62997;SDS011;55949;52.590;7.330;2023-04-15T02:13:22;12.27;;;8.10;;
62997;SDS011;55949;52.590;7.330;2023-04-15T02:14:23;13.43;;;7.90;;
62997;SDS011;55949;52.590;7.330;2023-04-15T02:15:24;12.85;;;8.05;;
62997;SDS011;55949;52.590;7.330;2023-04-15T02:16:24;13.18;;;8.05;;
62997;SDS011;55949;52.590;7.330;2023-04-15T02:17:25;12.05;;;7.97;;
62997;SDS011;55949;52.590;7.330;2023-04-15T02:18:26;11.80;;;7.30;;
62997;SDS011;55949;52.590;7.330;2023-04-15T02:19:27;14.77;;;7.75;;
62997;SDS011;55949;52.590;7.330;2023-04-15T02:20:27;13.80;;;7.93;;
62997;SDS011;55949;52.590;7.330;2023-04-15T02:21:29;11.07;;;6.80;;
62997;SDS011;55949;52.590;7.330;2023-04-15T02:22:30;10.15;;;6.60;;
62997;SDS011;55949;52.590;7.330;2023-04-15T02:23:31;10.88;;;6.25;;
62997;SDS011;55949;52.590;7.330;2023-04-15T02:24:32;11.38;;;7.35;;
62997;SDS011;55949;52.590;7.330;2023-04-15T02:25:33;11.65;;;7.35;;
62997;SDS011;55949;52.590;7.330;2023-04-15T02:26:34;13.88;;;7.60;;
62997;SDS011;55949;52.590;7.330;2023-04-15T02:27:35;11.57;;;8.50;;
62997;SDS011;55949;52.590;7.330;2023-04-15T02:28:35;14.50;;;9.18;;
62997;SDS011;55949;52.590;7.330;2023-04-15T02:29:36;13.32;;;8.73;;
62997;SDS011;55949;52.590;7.330;2023-04-15T02:30:37;15.20;;;9.32;;
62997;SDS011;55949;52.590;7.330;2023-04-15T02:31:39;17.42;;;9.77;;
62997;SDS011;55949;52.590;7.330;2023-04-15T02:32:41;13.50;;;9.00;;
62997;SDS011;55949;52.590;7.330;2023-04-15T02:33:44;14.43;;;9.73;;
62997;SDS011;55949;52.590;7.330;2023-04-15T02:34:44;14.15;;;9.30;;
62997;SDS011;55949;52.590;7.330;2023-04-15T02:35:45;15.30;;;9.82;;
62997;SDS011;55949;52.590;7.330;2023-04-15T02:36:46;14.88;;;9.80;;
62997;SDS011;55949;52.590;7.330;2023-04-15T02:37:48;14.32;;;8.98;;
62997;SDS011;55949;52.590;7.330;2023-04-15T02:38:49;15.70;;;9.57;;
62997;SDS011;55949;52.590;7.330;2023-04-15T02:39:50;13.55;;;9.13;;
62997;SDS011;55949;52.590;7.330;2023-04-15T02:40:51;13.23;;;9.13;;
62997;SDS011;55949;52.590;7.330;2023-04-15T02:41:51;14.25;;;8.85;;
62997;SDS011;55949;52.590;7.330;2023-04-15T02:42:52;15.15;;;9.60;;
62997;SDS011;55949;52.590;7.330;2023-04-15T02:43:53;14.07;;;9.00;;
62997;SDS011;55949;52.590;7.330;2023-04-15T02:44:54;12.07;;;9.25;;
62997;SDS011;55949;52.590;7.330;2023-04-15T02:45:55;13.00;;;10.02;;
62997;SDS011;55949;52.590;7.330;2023-04-15T02:46:56;16.90;;;10.98;;
62997;SDS011;55949;52.590;7.330;2023-04-15T02:47:57;13.98;;;9.15;;
62997;SDS011;55949;52.590;7.330;2023-04-15T02:48:57;21.77;;;10.90;;
62997;SDS011;55949;52.590;7.330;2023-04-15T02:49:58;18.48;;;9.90;;
62997;SDS011;55949;52.590;7.330;2023-04-15T02:51:13;13.80;;;9.00;;
62997;SDS011;55949;52.590;7.330;2023-04-15T02:52:21;13.80;;;10.20;;
62997;SDS011;55949;52.590;7.330;2023-04-15T02:53:23;13.45;;;9.68;;
62997;SDS011;55949;52.590;7.330;2023-04-15T02:54:25;17.23;;;10.63;;
62997;SDS011;55949;52.590;7.330;2023-04-15T02:55:27;13.90;;;9.73;;
62997;SDS011;55949;52.590;7.330;2023-04-15T02:56:28;16.83;;;10.45;;
62997;SDS011;55949;52.590;7.330;2023-04-15T02:57:29;13.02;;;9.63;;
62997;SDS011;55949;52.590;7.330;2023-04-15T02:58:30;16.08;;;9.88;;
62997;SDS011;55949;52.590;7.330;2023-04-15T02:59:31;12.55;;;9.07;;
62997;SDS011;55949;52.590;7.330;2023-04-15T03:00:32;16.10;;;10.23;;
62997;SDS011;55949;52.590;7.330;2023-04-15T03:01:32;15.43;;;9.18;;
62997;SDS011;55949;52.590;7.330;2023-04-15T03:02:34;18.15;;;10.10;;
62997;SDS011;55949;52.590;7.330;2023-04-15T03:03:35;15.60;;;9.23;;
62997;SDS011;55949;52.590;7.330;2023-04-15T03:04:36;21.88;;;10.25;;
62997;SDS011;55949;52.590;7.330;2023-04-15T03:05:38;16.20;;;10.23;;
62997;SDS011;55949;52.590;7.330;2023-04-15T03:06:40;14.15;;;10.18;;
62997;SDS011;55949;52.590;7.330;2023-04-15T03:07:40;15.98;;;10.52;;
62997;SDS011;55949;52.590;7.330;2023-04-15T03:08:41;18.48;;;9.75;;
62997;SDS011;55949;52.590;7.330;2023-04-15T03:09:42;20.67;;;10.68;;
62997;SDS011;55949;52.590;7.330;2023-04-15T03:10:42;17.45;;;10.32;;
62997;SDS011;55949;52.590;7.330;2023-04-15T03:11:43;16.10;;;10.35;;
62997;SDS011;55949;52.590;7.330;2023-04-15T03:12:44;13.73;;;10.00;;
62997;SDS011;55949;52.590;7.330;2023-04-15T03:13:45;17.42;;;10.90;;
62997;SDS011;55949;52.590;7.330;2023-04-15T03:14:46;16.63;;;11.38;;
62997;SDS011;55949;52.590;7.330;2023-04-15T03:15:46;14.70;;;10.85;;
62997;SDS011;55949;52.590;7.330;2023-04-15T03:16:47;15.45;;;10.85;;
62997;SDS011;55949;52.590;7.330;2023-04-15T03:17:49;16.38;;;10.85;;
62997;SDS011;55949;52.590;7.330;2023-04-15T03:18:50;18.45;;;11.48;;
62997;SDS011;55949;52.590;7.330;2023-04-15T03:19:51;17.83;;;10.68;;
62997;SDS011;55949;52.590;7.330;2023-04-15T03:20:52;16.70;;;11.23;;
62997;SDS011;55949;52.590;7.330;2023-04-15T03:21:52;18.95;;;11.88;;
62997;SDS011;55949;52.590;7.330;2023-04-15T03:22:53;17.63;;;12.20;;
62997;SDS011;55949;52.590;7.330;2023-04-15T03:23:53;17.20;;;11.50;;
62997;SDS011;55949;52.590;7.330;2023-04-15T03:24:55;17.13;;;11.73;;
62997;SDS011;55949;52.590;7.330;2023-04-15T03:25:56;16.35;;;10.77;;
62997;SDS011;55949;52.590;7.330;2023-04-15T03:26:57;17.52;;;11.20;;
62997;SDS011;55949;52.590;7.330;2023-04-15T03:27:58;16.98;;;12.07;;
62997;SDS011;55949;52.590;7.330;2023-04-15T03:28:59;16.17;;;11.13;;
62997;SDS011;55949;52.590;7.330;2023-04-15T03:30:00;16.27;;;11.55;;
62997;SDS011;55949;52.590;7.330;2023-04-15T03:31:01;17.65;;;11.70;;
62997;SDS011;55949;52.590;7.330;2023-04-15T03:32:02;18.77;;;12.00;;
62997;SDS011;55949;52.590;7.330;2023-04-15T03:33:02;16.88;;;11.25;;
62997;SDS011;55949;52.590;7.330;2023-04-15T03:34:03;19.33;;;12.20;;
62997;SDS011;55949;52.590;7.330;2023-04-15T03:35:04;20.35;;;12.23;;
62997;SDS011;55949;52.590;7.330;2023-04-15T03:36:05;20.20;;;12.70;;
62997;SDS011;55949;52.590;7.330;2023-04-15T03:37:06;21.70;;;13.35;;
62997;SDS011;55949;52.590;7.330;2023-04-15T03:38:07;19.33;;;12.45;;
62997;SDS011;55949;52.590;7.330;2023-04-15T03:39:08;20.33;;;13.82;;
62997;SDS011;55949;52.590;7.330;2023-04-15T03:40:09;21.05;;;12.90;;
62997;SDS011;55949;52.590;7.330;2023-04-15T03:41:10;22.25;;;14.18;;
62997;SDS011;55949;52.590;7.330;2023-04-15T03:42:11;21.95;;;13.65;;
62997;SDS011;55949;52.590;7.330;2023-04-15T03:43:11;22.35;;;14.73;;
62997;SDS011;55949;52.590;7.330;2023-04-15T03:44:12;19.67;;;13.57;;
62997;SDS011;55949;52.590;7.330;2023-04-15T03:45:13;24.20;;;13.63;;
62997;SDS011;55949;52.590;7.330;2023-04-15T03:46:13;26.38;;;14.50;;
62997;SDS011;55949;52.590;7.330;2023-04-15T03:47:14;24.73;;;14.38;;
62997;SDS011;55949;52.590;7.330;2023-04-15T03:48:15;21.58;;;14.10;;
62997;SDS011;55949;52.590;7.330;2023-04-15T03:49:16;20.60;;;14.25;;
62997;SDS011;55949;52.590;7.330;2023-04-15T03:50:18;26.05;;;14.40;;
62997;SDS011;55949;52.590;7.330;2023-04-15T03:51:18;23.13;;;14.20;;
62997;SDS011;55949;52.590;7.330;2023-04-15T03:52:19;24.70;;;14.25;;
62997;SDS011;55949;52.590;7.330;2023-04-15T03:53:20;20.30;;;13.98;;
62997;SDS011;55949;52.590;7.330;2023-04-15T03:54:22;22.35;;;14.48;;
62997;SDS011;55949;52.590;7.330;2023-04-15T03:55:22;24.83;;;14.27;;
62997;SDS011;55949;52.590;7.330;2023-04-15T03:56:24;21.98;;;14.23;;
62997;SDS011;55949;52.590;7.330;2023-04-15T03:57:25;25.00;;;14.98;;
62997;SDS011;55949;52.590;7.330;2023-04-15T03:58:26;23.05;;;14.85;;
62997;SDS011;55949;52.590;7.330;2023-04-15T03:59:27;23.23;;;13.52;;
62997;SDS011;55949;52.590;7.330;2023-04-15T04:00:27;23.33;;;14.93;;
62997;SDS011;55949;52.590;7.330;2023-04-15T04:01:28;24.13;;;15.07;;
62997;SDS011;55949;52.590;7.330;2023-04-15T04:02:29;26.20;;;14.65;;
62997;SDS011;55949;52.590;7.330;2023-04-15T04:03:30;21.10;;;13.98;;
62997;SDS011;55949;52.590;7.330;2023-04-15T04:04:30;22.15;;;14.95;;
62997;SDS011;55949;52.590;7.330;2023-04-15T04:05:31;23.63;;;13.93;;
62997;SDS011;55949;52.590;7.330;2023-04-15T04:06:32;25.70;;;15.85;;
62997;SDS011;55949;52.590;7.330;2023-04-15T04:07:33;23.23;;;14.77;;
62997;SDS011;55949;52.590;7.330;2023-04-15T04:08:33;25.83;;;15.57;;
62997;SDS011;55949;52.590;7.330;2023-04-15T04:09:34;28.73;;;15.27;;
62997;SDS011;55949;52.590;7.330;2023-04-15T04:10:37;28.52;;;16.38;;
62997;SDS011;55949;52.590;7.330;2023-04-15T04:11:39;24.08;;;15.95;;
62997;SDS011;55949;52.590;7.330;2023-04-15T04:12:39;24.35;;;14.00;;
62997;SDS011;55949;52.590;7.330;2023-04-15T04:13:40;25.33;;;16.13;;
62997;SDS011;55949;52.590;7.330;2023-04-15T04:14:41;29.92;;;16.02;;
62997;SDS011;55949;52.590;7.330;2023-04-15T04:15:41;25.50;;;16.42;;
62997;SDS011;55949;52.590;7.330;2023-04-15T04:16:42;32.03;;;16.92;;
62997;SDS011;55949;52.590;7.330;2023-04-15T04:17:43;27.65;;;15.65;;
62997;SDS011;55949;52.590;7.330;2023-04-15T04:18:45;24.23;;;15.18;;
62997;SDS011;55949;52.590;7.330;2023-04-15T04:19:46;22.95;;;15.52;;
62997;SDS011;55949;52.590;7.330;2023-04-15T04:20:46;26.35;;;15.73;;
62997;SDS011;55949;52.590;7.330;2023-04-15T04:21:47;24.90;;;15.32;;
62997;SDS011;55949;52.590;7.330;2023-04-15T04:22:48;32.38;;;17.42;;
62997;SDS011;55949;52.590;7.330;2023-04-15T04:23:49;35.40;;;15.93;;
62997;SDS011;55949;52.590;7.330;2023-04-15T04:24:50;31.42;;;17.60;;
62997;SDS011;55949;52.590;7.330;2023-04-15T04:25:51;24.35;;;15.93;;
62997;SDS011;55949;52.590;7.330;2023-04-15T04:26:52;27.25;;;17.00;;
62997;SDS011;55949;52.590;7.330;2023-04-15T04:27:53;27.88;;;17.20;;
62997;SDS011;55949;52.590;7.330;2023-04-15T04:28:54;27.98;;;16.17;;
62997;SDS011;55949;52.590;7.330;2023-04-15T04:29:54;21.58;;;14.70;;
62997;SDS011;55949;52.590;7.330;2023-04-15T04:30:55;25.42;;;16.75;;
62997;SDS011;55949;52.590;7.330;2023-04-15T04:31:56;36.00;;;16.35;;
62997;SDS011;55949;52.590;7.330;2023-04-15T04:32:56;28.23;;;15.63;;
62997;SDS011;55949;52.590;7.330;2023-04-15T04:33:57;28.52;;;15.43;;
62997;SDS011;55949;52.590;7.330;2023-04-15T04:34:58;29.38;;;15.60;;
62997;SDS011;55949;52.590;7.330;2023-04-15T04:35:59;30.75;;;15.98;;
62997;SDS011;55949;52.590;7.330;2023-04-15T04:36:59;24.42;;;15.32;;
62997;SDS011;55949;52.590;7.330;2023-04-15T04:38:00;24.75;;;15.50;;
62997;SDS011;55949;52.590;7.330;2023-04-15T04:39:00;26.50;;;16.23;;
62997;SDS011;55949;52.590;7.330;2023-04-15T04:40:01;28.05;;;16.27;;
62997;SDS011;55949;52.590;7.330;2023-04-15T04:41:02;24.98;;;16.02;;
62997;SDS011;55949;52.590;7.330;2023-04-15T04:42:03;24.80;;;16.08;;
62997;SDS011;55949;52.590;7.330;2023-04-15T04:43:04;26.23;;;16.05;;
62997;SDS011;55949;52.590;7.330;2023-04-15T04:44:04;24.95;;;16.02;;
62997;SDS011;55949;52.590;7.330;2023-04-15T04:45:05;26.92;;;16.20;;
62997;SDS011;55949;52.590;7.330;2023-04-15T04:46:06;27.63;;;15.68;;
62997;SDS011;55949;52.590;7.330;2023-04-15T04:47:07;30.63;;;17.70;;
62997;SDS011;55949;52.590;7.330;2023-04-15T04:48:07;23.98;;;15.65;;
62997;SDS011;55949;52.590;7.330;2023-04-15T04:49:09;27.23;;;15.55;;
62997;SDS011;55949;52.590;7.330;2023-04-15T04:50:10;27.42;;;16.80;;
62997;SDS011;55949;52.590;7.330;2023-04-15T04:51:11;28.30;;;15.93;;
62997;SDS011;55949;52.590;7.330;2023-04-15T04:52:12;25.77;;;15.55;;
62997;SDS011;55949;52.590;7.330;2023-04-15T04:53:13;28.88;;;15.93;;
62997;SDS011;55949;52.590;7.330;2023-04-15T04:54:14;24.60;;;15.18;;
62997;SDS011;55949;52.590;7.330;2023-04-15T04:55:15;28.05;;;15.35;;
62997;SDS011;55949;52.590;7.330;2023-04-15T04:56:16;24.10;;;15.07;;
62997;SDS011;55949;52.590;7.330;2023-04-15T04:57:16;27.98;;;14.27;;
62997;SDS011;55949;52.590;7.330;2023-04-15T04:58:17;23.85;;;14.30;;
62997;SDS011;55949;52.590;7.330;2023-04-15T04:59:18;26.30;;;16.00;;
62997;SDS011;55949;52.590;7.330;2023-04-15T05:00:18;28.20;;;15.85;;
62997;SDS011;55949;52.590;7.330;2023-04-15T05:01:19;24.95;;;14.50;;
62997;SDS011;55949;52.590;7.330;2023-04-15T05:02:20;29.05;;;16.23;;
62997;SDS011;55949;52.590;7.330;2023-04-15T05:03:21;31.08;;;16.40;;
62997;SDS011;55949;52.590;7.330;2023-04-15T05:04:21;30.45;;;16.30;;
62997;SDS011;55949;52.590;7.330;2023-04-15T05:05:22;24.55;;;15.30;;
62997;SDS011;55949;52.590;7.330;2023-04-15T05:06:23;31.95;;;16.83;;
62997;SDS011;55949;52.590;7.330;2023-04-15T05:07:24;42.40;;;16.27;;
62997;SDS011;55949;52.590;7.330;2023-04-15T05:08:24;29.10;;;15.50;;
62997;SDS011;55949;52.590;7.330;2023-04-15T05:09:25;28.90;;;15.30;;
62997;SDS011;55949;52.590;7.330;2023-04-15T05:10:26;30.63;;;16.17;;
62997;SDS011;55949;52.590;7.330;2023-04-15T05:11:26;26.80;;;15.68;;
62997;SDS011;55949;52.590;7.330;2023-04-15T05:12:27;24.92;;;16.00;;
62997;SDS011;55949;52.590;7.330;2023-04-15T05:13:28;26.63;;;14.82;;
62997;SDS011;55949;52.590;7.330;2023-04-15T05:14:29;27.60;;;14.93;;
62997;SDS011;55949;52.590;7.330;2023-04-15T05:15:31;26.33;;;14.55;;
62997;SDS011;55949;52.590;7.330;2023-04-15T05:16:33;26.27;;;14.88;;
62997;SDS011;55949;52.590;7.330;2023-04-15T05:17:34;23.58;;;14.15;;
62997;SDS011;55949;52.590;7.330;2023-04-15T05:18:35;26.08;;;14.40;;
62997;SDS011;55949;52.590;7.330;2023-04-15T05:19:36;26.58;;;13.50;;
62997;SDS011;55949;52.590;7.330;2023-04-15T05:20:37;24.65;;;13.93;;
62997;SDS011;55949;52.590;7.330;2023-04-15T05:21:38;23.08;;;12.95;;
62997;SDS011;55949;52.590;7.330;2023-04-15T05:22:39;25.00;;;14.65;;
62997;SDS011;55949;52.590;7.330;2023-04-15T05:23:40;24.52;;;14.40;;
62997;SDS011;55949;52.590;7.330;2023-04-15T05:24:40;22.17;;;12.60;;
62997;SDS011;55949;52.590;7.330;2023-04-15T05:25:41;22.77;;;14.10;;
62997;SDS011;55949;52.590;7.330;2023-04-15T05:26:42;23.48;;;13.32;;
62997;SDS011;55949;52.590;7.330;2023-04-15T05:27:43;22.42;;;13.07;;
62997;SDS011;55949;52.590;7.330;2023-04-15T05:28:44;23.98;;;14.32;;
62997;SDS011;55949;52.590;7.330;2023-04-15T05:29:45;25.73;;;14.60;;
62997;SDS011;55949;52.590;7.330;2023-04-15T05:30:46;25.08;;;13.75;;
62997;SDS011;55949;52.590;7.330;2023-04-15T05:31:46;26.15;;;14.48;;
62997;SDS011;55949;52.590;7.330;2023-04-15T05:32:47;25.08;;;14.35;;
62997;SDS011;55949;52.590;7.330;2023-04-15T05:33:48;27.83;;;13.95;;
62997;SDS011;55949;52.590;7.330;2023-04-15T05:34:49;23.35;;;14.13;;
62997;SDS011;55949;52.590;7.330;2023-04-15T05:35:50;23.08;;;14.23;;
62997;SDS011;55949;52.590;7.330;2023-04-15T05:36:50;28.83;;;15.10;;
62997;SDS011;55949;52.590;7.330;2023-04-15T05:37:51;27.67;;;14.63;;
62997;SDS011;55949;52.590;7.330;2023-04-15T05:38:52;24.13;;;13.73;;
62997;SDS011;55949;52.590;7.330;2023-04-15T05:39:53;26.90;;;15.20;;
62997;SDS011;55949;52.590;7.330;2023-04-15T05:40:53;28.88;;;15.68;;
62997;SDS011;55949;52.590;7.330;2023-04-15T05:41:54;29.33;;;15.15;;
62997;SDS011;55949;52.590;7.330;2023-04-15T05:42:56;26.90;;;14.85;;
62997;SDS011;55949;52.590;7.330;2023-04-15T05:43:57;26.45;;;14.70;;
62997;SDS011;55949;52.590;7.330;2023-04-15T05:44:58;28.48;;;14.45;;
62997;SDS011;55949;52.590;7.330;2023-04-15T05:45:59;24.33;;;14.02;;
62997;SDS011;55949;52.590;7.330;2023-04-15T05:47:00;26.40;;;15.40;;
62997;SDS011;55949;52.590;7.330;2023-04-15T05:48:02;28.73;;;16.15;;
62997;SDS011;55949;52.590;7.330;2023-04-15T05:49:03;26.50;;;14.35;;
62997;SDS011;55949;52.590;7.330;2023-04-15T05:50:04;33.08;;;15.13;;
62997;SDS011;55949;52.590;7.330;2023-04-15T05:51:05;33.08;;;15.70;;
62997;SDS011;55949;52.590;7.330;2023-04-15T05:52:06;28.85;;;16.17;;
62997;SDS011;55949;52.590;7.330;2023-04-15T05:53:07;28.42;;;15.30;;
62997;SDS011;55949;52.590;7.330;2023-04-15T05:54:08;26.02;;;15.18;;
62997;SDS011;55949;52.590;7.330;2023-04-15T05:55:09;30.67;;;16.05;;
62997;SDS011;55949;52.590;7.330;2023-04-15T05:56:13;28.70;;;16.77;;
62997;SDS011;55949;52.590;7.330;2023-04-15T05:57:14;29.73;;;14.98;;
62997;SDS011;55949;52.590;7.330;2023-04-15T05:58:14;30.67;;;15.88;;
62997;SDS011;55949;52.590;7.330;2023-04-15T05:59:15;27.83;;;14.70;;
62997;SDS011;55949;52.590;7.330;2023-04-15T06:00:16;32.58;;;16.60;;